sensor_id;sensor_type;location;lat;lon;timestamp;P1;durP1;ratioP1;P2;durP2;ratioP2
43088;SDS011;28709;52.030;5.652;2023-02-15T00:01:36;28.52;;;15.07;;
43088;SDS011;28709;52.030;5.652;2023-02-15T00:04:02;27.60;;;15.05;;
43088;SDS011;28709;52.030;5.652;2023-02-15T00:06:29;27.23;;;14.00;;
43088;SDS011;28709;52.030;5.652;2023-02-15T00:08:55;27.52;;;14.23;;
43088;SDS011;28709;52.030;5.652;2023-02-15T00:11:21;32.20;;;13.98;;
43088;SDS011;28709;52.030;5.652;2023-02-15T00:14:09;25.30;;;14.43;;
43088;SDS011;28709;52.030;5.652;2023-02-15T00:16:40;28.35;;;14.70;;
43088;SDS011;28709;52.030;5.652;2023-02-15T00:19:07;27.25;;;13.52;;
43088;SDS011;28709;52.030;5.652;2023-02-15T00:21:34;30.55;;;14.95;;
43088;SDS011;28709;52.030;5.652;2023-02-15T00:24:01;28.58;;;14.57;;
43088;SDS011;28709;52.030;5.652;2023-02-15T00:26:29;28.52;;;14.25;;
43088;SDS011;28709;52.030;5.652;2023-02-15T00:28:55;28.30;;;14.65;;
43088;SDS011;28709;52.030;5.652;2023-02-15T00:31:23;30.23;;;14.43;;
43088;SDS011;28709;52.030;5.652;2023-02-15T00:33:49;26.80;;;14.30;;
43088;SDS011;28709;52.030;5.652;2023-02-15T00:36:15;22.10;;;12.52;;
43088;SDS011;28709;52.030;5.652;2023-02-15T00:38:41;26.17;;;12.52;;
43088;SDS011;28709;52.030;5.652;2023-02-15T00:41:07;24.45;;;13.63;;
43088;SDS011;28709;52.030;5.652;2023-02-15T00:43:34;17.52;;;10.43;;
43088;SDS011;28709;52.030;5.652;2023-02-15T00:46:00;19.55;;;10.25;;
43088;SDS011;28709;52.030;5.652;2023-02-15T00:48:27;18.67;;;10.13;;
43088;SDS011;28709;52.030;5.652;2023-02-15T00:50:57;18.92;;;10.55;;
43088;SDS011;28709;52.030;5.652;2023-02-15T00:53:24;25.63;;;12.60;;
43088;SDS011;28709;52.030;5.652;2023-02-15T00:55:51;24.27;;;13.27;;
43088;SDS011;28709;52.030;5.652;2023-02-15T00:58:17;20.98;;;11.20;;
43088;SDS011;28709;52.030;5.652;2023-02-15T01:00:43;20.80;;;12.10;;
43088;SDS011;28709;52.030;5.652;2023-02-15T01:03:11;22.40;;;11.10;;
43088;SDS011;28709;52.030;5.652;2023-02-15T01:05:37;25.08;;;12.57;;
43088;SDS011;28709;52.030;5.652;2023-02-15T01:08:03;21.65;;;11.73;;
43088;SDS011;28709;52.030;5.652;2023-02-15T01:10:29;24.98;;;13.60;;
43088;SDS011;28709;52.030;5.652;2023-02-15T01:12:55;21.85;;;11.95;;
43088;SDS011;28709;52.030;5.652;2023-02-15T01:15:22;21.20;;;11.60;;
43088;SDS011;28709;52.030;5.652;2023-02-15T01:17:48;23.42;;;11.38;;
43088;SDS011;28709;52.030;5.652;2023-02-15T01:20:19;21.75;;;12.00;;
43088;SDS011;28709;52.030;5.652;2023-02-15T01:22:45;23.35;;;11.70;;
43088;SDS011;28709;52.030;5.652;2023-02-15T01:25:11;22.92;;;12.15;;
43088;SDS011;28709;52.030;5.652;2023-02-15T01:27:37;20.00;;;10.23;;
43088;SDS011;28709;52.030;5.652;2023-02-15T01:30:03;17.88;;;10.70;;
43088;SDS011;28709;52.030;5.652;2023-02-15T01:32:29;20.88;;;10.30;;
43088;SDS011;28709;52.030;5.652;2023-02-15T01:34:55;24.83;;;12.45;;
43088;SDS011;28709;52.030;5.652;2023-02-15T01:37:21;21.40;;;11.25;;
43088;SDS011;28709;52.030;5.652;2023-02-15T01:39:47;20.55;;;10.93;;
43088;SDS011;28709;52.030;5.652;2023-02-15T01:42:13;31.30;;;12.98;;
43088;SDS011;28709;52.030;5.652;2023-02-15T01:47:10;22.20;;;11.70;;
43088;SDS011;28709;52.030;5.652;2023-02-15T01:49:40;20.88;;;10.75;;
43088;SDS011;28709;52.030;5.652;2023-02-15T01:52:09;18.92;;;10.43;;
43088;SDS011;28709;52.030;5.652;2023-02-15T01:54:38;22.70;;;11.52;;
43088;SDS011;28709;52.030;5.652;2023-02-15T01:57:07;20.90;;;9.95;;
43088;SDS011;28709;52.030;5.652;2023-02-15T01:59:37;19.83;;;10.88;;
43088;SDS011;28709;52.030;5.652;2023-02-15T02:02:05;18.60;;;9.82;;
43088;SDS011;28709;52.030;5.652;2023-02-15T02:07:06;23.23;;;11.30;;
43088;SDS011;28709;52.030;5.652;2023-02-15T02:09:33;22.08;;;11.32;;
43088;SDS011;28709;52.030;5.652;2023-02-15T02:12:00;19.52;;;9.82;;
43088;SDS011;28709;52.030;5.652;2023-02-15T02:14:26;21.73;;;10.95;;
43088;SDS011;28709;52.030;5.652;2023-02-15T02:17:02;19.63;;;10.27;;
43088;SDS011;28709;52.030;5.652;2023-02-15T02:34:21;21.67;;;11.35;;
43088;SDS011;28709;52.030;5.652;2023-02-15T02:36:59;24.35;;;12.95;;
43088;SDS011;28709;52.030;5.652;2023-02-15T02:39:49;22.35;;;11.52;;
43088;SDS011;28709;52.030;5.652;2023-02-15T02:45:40;20.13;;;10.55;;
43088;SDS011;28709;52.030;5.652;2023-02-15T02:48:15;18.85;;;10.68;;
43088;SDS011;28709;52.030;5.652;2023-02-15T02:50:45;23.00;;;11.70;;
43088;SDS011;28709;52.030;5.652;2023-02-15T02:53:10;20.67;;;11.32;;
43088;SDS011;28709;52.030;5.652;2023-02-15T02:58:49;22.33;;;11.77;;
43088;SDS011;28709;52.030;5.652;2023-02-15T03:01:43;20.67;;;11.27;;
43088;SDS011;28709;52.030;5.652;2023-02-15T03:07:05;18.95;;;9.25;;
43088;SDS011;28709;52.030;5.652;2023-02-15T03:09:37;20.88;;;10.73;;
43088;SDS011;28709;52.030;5.652;2023-02-15T03:12:14;30.98;;;14.45;;
43088;SDS011;28709;52.030;5.652;2023-02-15T03:14:45;23.88;;;11.35;;
43088;SDS011;28709;52.030;5.652;2023-02-15T03:17:17;26.02;;;12.93;;
43088;SDS011;28709;52.030;5.652;2023-02-15T03:19:46;31.30;;;13.77;;
43088;SDS011;28709;52.030;5.652;2023-02-15T03:22:17;22.13;;;12.60;;
43088;SDS011;28709;52.030;5.652;2023-02-15T03:27:31;20.00;;;11.25;;
43088;SDS011;28709;52.030;5.652;2023-02-15T03:29:59;20.92;;;11.00;;
43088;SDS011;28709;52.030;5.652;2023-02-15T03:32:28;20.13;;;10.05;;
43088;SDS011;28709;52.030;5.652;2023-02-15T03:34:57;18.60;;;10.18;;
43088;SDS011;28709;52.030;5.652;2023-02-15T03:37:26;23.45;;;10.40;;
43088;SDS011;28709;52.030;5.652;2023-02-15T03:39:59;19.73;;;10.48;;
43088;SDS011;28709;52.030;5.652;2023-02-15T03:42:49;17.17;;;8.93;;
43088;SDS011;28709;52.030;5.652;2023-02-15T03:45:25;19.88;;;9.77;;
43088;SDS011;28709;52.030;5.652;2023-02-15T03:47:55;18.65;;;10.32;;
43088;SDS011;28709;52.030;5.652;2023-02-15T03:50:24;23.10;;;11.07;;
43088;SDS011;28709;52.030;5.652;2023-02-15T03:53:14;19.20;;;10.52;;
43088;SDS011;28709;52.030;5.652;2023-02-15T03:55:48;15.80;;;9.35;;
43088;SDS011;28709;52.030;5.652;2023-02-15T03:58:15;14.75;;;8.75;;
43088;SDS011;28709;52.030;5.652;2023-02-15T04:01:02;24.52;;;10.98;;
43088;SDS011;28709;52.030;5.652;2023-02-15T04:04:03;17.42;;;9.95;;
43088;SDS011;28709;52.030;5.652;2023-02-15T04:06:40;22.27;;;10.63;;
43088;SDS011;28709;52.030;5.652;2023-02-15T04:09:05;16.30;;;9.27;;
43088;SDS011;28709;52.030;5.652;2023-02-15T04:11:50;19.35;;;10.57;;
43088;SDS011;28709;52.030;5.652;2023-02-15T04:14:15;19.67;;;10.10;;
43088;SDS011;28709;52.030;5.652;2023-02-15T04:16:59;19.40;;;10.00;;
43088;SDS011;28709;52.030;5.652;2023-02-15T04:19:25;26.38;;;12.27;;
43088;SDS011;28709;52.030;5.652;2023-02-15T04:22:09;28.53;;;12.90;;
43088;SDS011;28709;52.030;5.652;2023-02-15T04:24:53;24.83;;;13.18;;
43088;SDS011;28709;52.030;5.652;2023-02-15T04:27:37;31.25;;;14.63;;
43088;SDS011;28709;52.030;5.652;2023-02-15T04:30:07;22.52;;;11.75;;
43088;SDS011;28709;52.030;5.652;2023-02-15T04:32:34;25.88;;;12.02;;
43088;SDS011;28709;52.030;5.652;2023-02-15T04:35:01;21.83;;;12.43;;
43088;SDS011;28709;52.030;5.652;2023-02-15T04:37:27;32.50;;;15.43;;
43088;SDS011;28709;52.030;5.652;2023-02-15T04:39:53;27.88;;;14.18;;
43088;SDS011;28709;52.030;5.652;2023-02-15T04:42:18;31.02;;;15.45;;
43088;SDS011;28709;52.030;5.652;2023-02-15T04:44:44;35.72;;;17.83;;
43088;SDS011;28709;52.030;5.652;2023-02-15T04:47:09;35.25;;;16.70;;
43088;SDS011;28709;52.030;5.652;2023-02-15T04:49:35;32.50;;;17.00;;
43088;SDS011;28709;52.030;5.652;2023-02-15T04:52:01;34.13;;;16.75;;
43088;SDS011;28709;52.030;5.652;2023-02-15T04:54:26;36.88;;;17.65;;
43088;SDS011;28709;52.030;5.652;2023-02-15T04:56:52;31.83;;;16.25;;
43088;SDS011;28709;52.030;5.652;2023-02-15T04:59:18;29.02;;;14.40;;
43088;SDS011;28709;52.030;5.652;2023-02-15T05:01:43;28.48;;;14.52;;
43088;SDS011;28709;52.030;5.652;2023-02-15T05:04:09;29.00;;;14.95;;
43088;SDS011;28709;52.030;5.652;2023-02-15T05:06:35;30.92;;;15.20;;
43088;SDS011;28709;52.030;5.652;2023-02-15T05:09:00;23.85;;;13.18;;
43088;SDS011;28709;52.030;5.652;2023-02-15T05:11:26;24.40;;;13.68;;
43088;SDS011;28709;52.030;5.652;2023-02-15T05:13:52;25.38;;;12.52;;
43088;SDS011;28709;52.030;5.652;2023-02-15T05:16:17;21.52;;;11.90;;
43088;SDS011;28709;52.030;5.652;2023-02-15T05:18:43;29.88;;;13.23;;
43088;SDS011;28709;52.030;5.652;2023-02-15T05:21:09;22.55;;;12.32;;
43088;SDS011;28709;52.030;5.652;2023-02-15T05:23:35;31.35;;;14.20;;
43088;SDS011;28709;52.030;5.652;2023-02-15T05:26:01;26.75;;;14.00;;
43088;SDS011;28709;52.030;5.652;2023-02-15T05:28:45;29.73;;;14.65;;
43088;SDS011;28709;52.030;5.652;2023-02-15T05:31:14;34.53;;;16.85;;
43088;SDS011;28709;52.030;5.652;2023-02-15T05:33:42;33.80;;;17.15;;
43088;SDS011;28709;52.030;5.652;2023-02-15T05:36:09;30.75;;;16.08;;
43088;SDS011;28709;52.030;5.652;2023-02-15T05:38:35;31.63;;;16.50;;
43088;SDS011;28709;52.030;5.652;2023-02-15T05:41:04;36.65;;;17.08;;
43088;SDS011;28709;52.030;5.652;2023-02-15T05:43:30;29.83;;;15.57;;
43088;SDS011;28709;52.030;5.652;2023-02-15T05:45:57;43.30;;;18.88;;
43088;SDS011;28709;52.030;5.652;2023-02-15T05:48:24;30.40;;;15.98;;
43088;SDS011;28709;52.030;5.652;2023-02-15T05:51:04;32.00;;;15.88;;
43088;SDS011;28709;52.030;5.652;2023-02-15T05:53:35;28.77;;;14.77;;
43088;SDS011;28709;52.030;5.652;2023-02-15T05:56:03;27.70;;;14.05;;
43088;SDS011;28709;52.030;5.652;2023-02-15T05:58:31;32.80;;;17.35;;
43088;SDS011;28709;52.030;5.652;2023-02-15T06:00:58;34.40;;;15.95;;
43088;SDS011;28709;52.030;5.652;2023-02-15T06:03:24;30.80;;;16.58;;
43088;SDS011;28709;52.030;5.652;2023-02-15T06:05:51;30.38;;;14.15;;
43088;SDS011;28709;52.030;5.652;2023-02-15T06:08:17;25.77;;;13.77;;
43088;SDS011;28709;52.030;5.652;2023-02-15T06:10:45;39.85;;;19.48;;
43088;SDS011;28709;52.030;5.652;2023-02-15T06:13:11;25.88;;;13.02;;
43088;SDS011;28709;52.030;5.652;2023-02-15T06:15:37;27.02;;;14.05;;
43088;SDS011;28709;52.030;5.652;2023-02-15T06:18:02;27.83;;;13.75;;
43088;SDS011;28709;52.030;5.652;2023-02-15T06:20:28;39.72;;;16.60;;
43088;SDS011;28709;52.030;5.652;2023-02-15T06:22:54;30.40;;;14.93;;
43088;SDS011;28709;52.030;5.652;2023-02-15T06:25:19;33.80;;;17.25;;
43088;SDS011;28709;52.030;5.652;2023-02-15T06:27:45;37.67;;;18.92;;
43088;SDS011;28709;52.030;5.652;2023-02-15T06:30:11;41.80;;;19.55;;
43088;SDS011;28709;52.030;5.652;2023-02-15T06:32:37;36.08;;;17.75;;
43088;SDS011;28709;52.030;5.652;2023-02-15T06:35:03;43.67;;;20.77;;
43088;SDS011;28709;52.030;5.652;2023-02-15T06:37:29;39.65;;;19.88;;
43088;SDS011;28709;52.030;5.652;2023-02-15T06:39:54;37.45;;;18.20;;
43088;SDS011;28709;52.030;5.652;2023-02-15T06:42:20;40.63;;;19.42;;
43088;SDS011;28709;52.030;5.652;2023-02-15T06:44:47;43.70;;;20.65;;
43088;SDS011;28709;52.030;5.652;2023-02-15T06:47:12;43.38;;;19.67;;
43088;SDS011;28709;52.030;5.652;2023-02-15T06:49:38;38.35;;;19.50;;
43088;SDS011;28709;52.030;5.652;2023-02-15T06:52:04;39.47;;;20.58;;
43088;SDS011;28709;52.030;5.652;2023-02-15T06:54:30;46.83;;;21.95;;
43088;SDS011;28709;52.030;5.652;2023-02-15T06:56:55;40.10;;;19.27;;
43088;SDS011;28709;52.030;5.652;2023-02-15T06:59:21;42.28;;;19.55;;
43088;SDS011;28709;52.030;5.652;2023-02-15T07:01:47;54.65;;;22.10;;
43088;SDS011;28709;52.030;5.652;2023-02-15T07:04:13;41.47;;;20.55;;
43088;SDS011;28709;52.030;5.652;2023-02-15T07:06:39;35.47;;;17.10;;
43088;SDS011;28709;52.030;5.652;2023-02-15T07:09:05;34.08;;;18.15;;
43088;SDS011;28709;52.030;5.652;2023-02-15T07:11:31;40.60;;;18.77;;
43088;SDS011;28709;52.030;5.652;2023-02-15T07:14:15;36.63;;;17.73;;
43088;SDS011;28709;52.030;5.652;2023-02-15T07:16:41;42.00;;;20.42;;
43088;SDS011;28709;52.030;5.652;2023-02-15T07:19:07;39.53;;;19.48;;
43088;SDS011;28709;52.030;5.652;2023-02-15T07:21:33;39.17;;;19.48;;
43088;SDS011;28709;52.030;5.652;2023-02-15T07:23:59;38.78;;;19.40;;
43088;SDS011;28709;52.030;5.652;2023-02-15T07:26:25;39.15;;;19.17;;
43088;SDS011;28709;52.030;5.652;2023-02-15T07:28:51;48.10;;;20.45;;
43088;SDS011;28709;52.030;5.652;2023-02-15T07:31:17;40.72;;;19.45;;
43088;SDS011;28709;52.030;5.652;2023-02-15T07:33:43;38.17;;;19.05;;
43088;SDS011;28709;52.030;5.652;2023-02-15T07:36:09;39.45;;;20.20;;
43088;SDS011;28709;52.030;5.652;2023-02-15T07:38:37;40.28;;;19.73;;
43088;SDS011;28709;52.030;5.652;2023-02-15T07:41:09;47.10;;;22.42;;
43088;SDS011;28709;52.030;5.652;2023-02-15T07:43:37;38.97;;;20.05;;
43088;SDS011;28709;52.030;5.652;2023-02-15T07:46:06;42.60;;;21.55;;
43088;SDS011;28709;52.030;5.652;2023-02-15T07:48:34;42.38;;;21.27;;
43088;SDS011;28709;52.030;5.652;2023-02-15T07:51:01;46.28;;;19.88;;
43088;SDS011;28709;52.030;5.652;2023-02-15T07:53:28;43.40;;;21.50;;
43088;SDS011;28709;52.030;5.652;2023-02-15T07:55:54;44.17;;;22.45;;
43088;SDS011;28709;52.030;5.652;2023-02-15T07:58:23;44.55;;;19.75;;
43088;SDS011;28709;52.030;5.652;2023-02-15T08:01:08;40.15;;;20.13;;
43088;SDS011;28709;52.030;5.652;2023-02-15T08:03:34;43.42;;;21.83;;
43088;SDS011;28709;52.030;5.652;2023-02-15T08:05:59;38.92;;;19.48;;
43088;SDS011;28709;52.030;5.652;2023-02-15T08:08:26;39.38;;;20.00;;
43088;SDS011;28709;52.030;5.652;2023-02-15T08:13:46;43.78;;;19.88;;
43088;SDS011;28709;52.030;5.652;2023-02-15T08:16:19;39.22;;;19.38;;
43088;SDS011;28709;52.030;5.652;2023-02-15T08:18:45;36.53;;;19.15;;
43088;SDS011;28709;52.030;5.652;2023-02-15T08:21:11;36.42;;;19.23;;
43088;SDS011;28709;52.030;5.652;2023-02-15T08:23:36;39.15;;;19.02;;
43088;SDS011;28709;52.030;5.652;2023-02-15T08:26:02;33.13;;;18.55;;
43088;SDS011;28709;52.030;5.652;2023-02-15T08:28:29;34.55;;;18.38;;
43088;SDS011;28709;52.030;5.652;2023-02-15T08:30:55;35.78;;;19.55;;
43088;SDS011;28709;52.030;5.652;2023-02-15T08:33:20;33.63;;;18.63;;
43088;SDS011;28709;52.030;5.652;2023-02-15T08:35:46;33.33;;;19.00;;
43088;SDS011;28709;52.030;5.652;2023-02-15T08:38:11;36.70;;;19.80;;
43088;SDS011;28709;52.030;5.652;2023-02-15T08:40:37;34.38;;;18.65;;
43088;SDS011;28709;52.030;5.652;2023-02-15T08:43:03;41.83;;;21.25;;
43088;SDS011;28709;52.030;5.652;2023-02-15T08:45:28;35.13;;;19.00;;
43088;SDS011;28709;52.030;5.652;2023-02-15T08:47:54;36.83;;;19.23;;
43088;SDS011;28709;52.030;5.652;2023-02-15T08:50:20;34.28;;;18.77;;
43088;SDS011;28709;52.030;5.652;2023-02-15T08:52:45;35.42;;;18.00;;
43088;SDS011;28709;52.030;5.652;2023-02-15T08:55:11;32.38;;;17.40;;
43088;SDS011;28709;52.030;5.652;2023-02-15T08:57:36;35.38;;;18.35;;
43088;SDS011;28709;52.030;5.652;2023-02-15T09:00:03;35.90;;;19.83;;
43088;SDS011;28709;52.030;5.652;2023-02-15T09:02:29;35.95;;;18.38;;
43088;SDS011;28709;52.030;5.652;2023-02-15T09:04:55;33.78;;;19.27;;
43088;SDS011;28709;52.030;5.652;2023-02-15T09:07:20;37.63;;;18.83;;
43088;SDS011;28709;52.030;5.652;2023-02-15T09:09:46;32.83;;;18.08;;
43088;SDS011;28709;52.030;5.652;2023-02-15T09:12:12;37.65;;;18.63;;
43088;SDS011;28709;52.030;5.652;2023-02-15T09:14:37;33.60;;;19.13;;
43088;SDS011;28709;52.030;5.652;2023-02-15T09:17:03;36.78;;;19.80;;
43088;SDS011;28709;52.030;5.652;2023-02-15T09:19:29;33.40;;;19.55;;
43088;SDS011;28709;52.030;5.652;2023-02-15T09:21:54;34.88;;;18.38;;
43088;SDS011;28709;52.030;5.652;2023-02-15T09:24:20;31.02;;;17.92;;
43088;SDS011;28709;52.030;5.652;2023-02-15T09:26:46;38.08;;;19.10;;
43088;SDS011;28709;52.030;5.652;2023-02-15T09:29:13;41.20;;;21.13;;
43088;SDS011;28709;52.030;5.652;2023-02-15T09:31:40;34.65;;;19.30;;
43088;SDS011;28709;52.030;5.652;2023-02-15T09:34:15;35.30;;;19.17;;
43088;SDS011;28709;52.030;5.652;2023-02-15T09:36:42;36.65;;;19.88;;
43088;SDS011;28709;52.030;5.652;2023-02-15T09:39:12;36.78;;;21.08;;
43088;SDS011;28709;52.030;5.652;2023-02-15T09:53:25;35.78;;;19.60;;
43088;SDS011;28709;52.030;5.652;2023-02-15T09:59:26;32.15;;;18.10;;
43088;SDS011;28709;52.030;5.652;2023-02-15T10:15:51;40.33;;;20.42;;
43088;SDS011;28709;52.030;5.652;2023-02-15T10:23:51;32.03;;;18.45;;
43088;SDS011;28709;52.030;5.652;2023-02-15T10:26:20;35.80;;;20.45;;
43088;SDS011;28709;52.030;5.652;2023-02-15T10:42:37;38.17;;;21.55;;
43088;SDS011;28709;52.030;5.652;2023-02-15T10:45:13;37.10;;;19.83;;
43088;SDS011;28709;52.030;5.652;2023-02-15T10:48:07;35.90;;;19.08;;
43088;SDS011;28709;52.030;5.652;2023-02-15T10:50:46;35.78;;;19.65;;
43088;SDS011;28709;52.030;5.652;2023-02-15T10:55:55;34.15;;;19.92;;
43088;SDS011;28709;52.030;5.652;2023-02-15T10:58:45;36.92;;;19.58;;
43088;SDS011;28709;52.030;5.652;2023-02-15T11:04:11;32.30;;;18.73;;
43088;SDS011;28709;52.030;5.652;2023-02-15T11:06:59;34.55;;;20.20;;
43088;SDS011;28709;52.030;5.652;2023-02-15T11:09:38;31.70;;;18.88;;
43088;SDS011;28709;52.030;5.652;2023-02-15T11:12:13;31.92;;;19.90;;
43088;SDS011;28709;52.030;5.652;2023-02-15T11:14:48;34.40;;;20.10;;
43088;SDS011;28709;52.030;5.652;2023-02-15T11:17:28;38.95;;;19.50;;
43088;SDS011;28709;52.030;5.652;2023-02-15T11:20:31;32.22;;;18.20;;
43088;SDS011;28709;52.030;5.652;2023-02-15T11:23:01;28.90;;;18.05;;
43088;SDS011;28709;52.030;5.652;2023-02-15T11:25:29;35.67;;;20.02;;
43088;SDS011;28709;52.030;5.652;2023-02-15T11:27:57;35.33;;;20.35;;
43088;SDS011;28709;52.030;5.652;2023-02-15T11:30:25;36.95;;;21.23;;
43088;SDS011;28709;52.030;5.652;2023-02-15T11:32:59;39.38;;;21.08;;
43088;SDS011;28709;52.030;5.652;2023-02-15T11:35:28;40.13;;;20.20;;
43088;SDS011;28709;52.030;5.652;2023-02-15T11:43:16;38.40;;;19.88;;
43088;SDS011;28709;52.030;5.652;2023-02-15T11:45:49;32.97;;;19.42;;
43088;SDS011;28709;52.030;5.652;2023-02-15T11:48:15;31.13;;;19.00;;
43088;SDS011;28709;52.030;5.652;2023-02-15T11:50:42;35.80;;;20.48;;
43088;SDS011;28709;52.030;5.652;2023-02-15T11:53:11;35.78;;;21.20;;
43088;SDS011;28709;52.030;5.652;2023-02-15T11:55:41;40.42;;;22.40;;
43088;SDS011;28709;52.030;5.652;2023-02-15T12:01:10;33.97;;;20.30;;
43088;SDS011;28709;52.030;5.652;2023-02-15T12:04:07;35.55;;;21.02;;
43088;SDS011;28709;52.030;5.652;2023-02-15T12:06:48;42.00;;;20.73;;
43088;SDS011;28709;52.030;5.652;2023-02-15T12:14:50;31.42;;;18.20;;
43088;SDS011;28709;52.030;5.652;2023-02-15T12:19:52;32.72;;;20.02;;
43088;SDS011;28709;52.030;5.652;2023-02-15T12:22:28;38.28;;;20.58;;
43088;SDS011;28709;52.030;5.652;2023-02-15T12:24:58;39.97;;;20.55;;
43088;SDS011;28709;52.030;5.652;2023-02-15T12:27:28;35.05;;;21.20;;
43088;SDS011;28709;52.030;5.652;2023-02-15T12:29:58;34.20;;;20.08;;
43088;SDS011;28709;52.030;5.652;2023-02-15T12:32:37;34.28;;;19.83;;
43088;SDS011;28709;52.030;5.652;2023-02-15T12:35:29;35.88;;;20.10;;
43088;SDS011;28709;52.030;5.652;2023-02-15T12:38:00;35.60;;;20.17;;
43088;SDS011;28709;52.030;5.652;2023-02-15T12:40:27;35.63;;;21.23;;
43088;SDS011;28709;52.030;5.652;2023-02-15T12:42:58;36.15;;;20.98;;
43088;SDS011;28709;52.030;5.652;2023-02-15T12:50:39;35.50;;;20.15;;
43088;SDS011;28709;52.030;5.652;2023-02-15T12:53:51;37.00;;;22.30;;
43088;SDS011;28709;52.030;5.652;2023-02-15T12:55:57;39.80;;;21.55;;
43088;SDS011;28709;52.030;5.652;2023-02-15T12:58:31;29.27;;;17.02;;
43088;SDS011;28709;52.030;5.652;2023-02-15T13:04:01;32.28;;;19.70;;
43088;SDS011;28709;52.030;5.652;2023-02-15T13:06:32;35.47;;;19.63;;
43088;SDS011;28709;52.030;5.652;2023-02-15T13:09:11;31.85;;;18.58;;
43088;SDS011;28709;52.030;5.652;2023-02-15T13:11:44;36.70;;;19.88;;
43088;SDS011;28709;52.030;5.652;2023-02-15T13:14:31;34.55;;;20.27;;
43088;SDS011;28709;52.030;5.652;2023-02-15T13:16:58;34.63;;;18.83;;
43088;SDS011;28709;52.030;5.652;2023-02-15T13:22:08;34.22;;;19.67;;
43088;SDS011;28709;52.030;5.652;2023-02-15T13:27:24;38.95;;;21.08;;
43088;SDS011;28709;52.030;5.652;2023-02-15T13:29:58;36.40;;;21.08;;
43088;SDS011;28709;52.030;5.652;2023-02-15T13:32:36;38.00;;;20.95;;
43088;SDS011;28709;52.030;5.652;2023-02-15T13:35:05;36.85;;;19.80;;
43088;SDS011;28709;52.030;5.652;2023-02-15T13:40:15;36.08;;;20.25;;
43088;SDS011;28709;52.030;5.652;2023-02-15T13:42:59;36.42;;;20.05;;
43088;SDS011;28709;52.030;5.652;2023-02-15T13:56:28;41.22;;;23.58;;
43088;SDS011;28709;52.030;5.652;2023-02-15T14:15:19;39.38;;;21.50;;
43088;SDS011;28709;52.030;5.652;2023-02-15T14:26:15;38.45;;;19.50;;
43088;SDS011;28709;52.030;5.652;2023-02-15T14:31:30;43.80;;;20.70;;
43088;SDS011;28709;52.030;5.652;2023-02-15T14:34:03;38.75;;;21.92;;
43088;SDS011;28709;52.030;5.652;2023-02-15T14:36:29;36.40;;;20.10;;
43088;SDS011;28709;52.030;5.652;2023-02-15T14:39:18;37.70;;;19.65;;
43088;SDS011;28709;52.030;5.652;2023-02-15T14:47:44;37.65;;;19.48;;
43088;SDS011;28709;52.030;5.652;2023-02-15T14:50:36;40.55;;;19.80;;
43088;SDS011;28709;52.030;5.652;2023-02-15T14:55:59;36.75;;;20.27;;
43088;SDS011;28709;52.030;5.652;2023-02-15T15:03:58;37.05;;;21.63;;
43088;SDS011;28709;52.030;5.652;2023-02-15T15:06:30;39.67;;;21.10;;
43088;SDS011;28709;52.030;5.652;2023-02-15T15:09:10;46.58;;;22.63;;
43088;SDS011;28709;52.030;5.652;2023-02-15T15:11:55;41.58;;;22.42;;
43088;SDS011;28709;52.030;5.652;2023-02-15T15:14:39;40.40;;;21.13;;
43088;SDS011;28709;52.030;5.652;2023-02-15T15:17:09;41.75;;;22.30;;
43088;SDS011;28709;52.030;5.652;2023-02-15T15:49:19;36.90;;;19.90;;
43088;SDS011;28709;52.030;5.652;2023-02-15T15:51:46;34.50;;;19.98;;
43088;SDS011;28709;52.030;5.652;2023-02-15T15:54:17;42.47;;;20.63;;
43088;SDS011;28709;52.030;5.652;2023-02-15T15:56:52;35.20;;;18.13;;
43088;SDS011;28709;52.030;5.652;2023-02-15T15:59:31;36.65;;;18.30;;
43088;SDS011;28709;52.030;5.652;2023-02-15T16:02:04;41.97;;;20.70;;
43088;SDS011;28709;52.030;5.652;2023-02-15T16:04:32;37.40;;;18.95;;
43088;SDS011;28709;52.030;5.652;2023-02-15T16:09:57;42.38;;;19.75;;
43088;SDS011;28709;52.030;5.652;2023-02-15T16:12:27;36.75;;;18.77;;
43088;SDS011;28709;52.030;5.652;2023-02-15T16:14:54;37.72;;;19.40;;
43088;SDS011;28709;52.030;5.652;2023-02-15T16:17:25;50.30;;;21.98;;
43088;SDS011;28709;52.030;5.652;2023-02-15T16:19:56;48.78;;;22.67;;
43088;SDS011;28709;52.030;5.652;2023-02-15T16:22:26;45.85;;;23.85;;
43088;SDS011;28709;52.030;5.652;2023-02-15T16:29:53;40.72;;;20.88;;
43088;SDS011;28709;52.030;5.652;2023-02-15T16:32:20;34.85;;;18.50;;
43088;SDS011;28709;52.030;5.652;2023-02-15T16:34:59;37.63;;;19.80;;
43088;SDS011;28709;52.030;5.652;2023-02-15T16:37:36;41.55;;;21.38;;
43088;SDS011;28709;52.030;5.652;2023-02-15T16:40:01;40.80;;;21.92;;
43088;SDS011;28709;52.030;5.652;2023-02-15T16:42:27;43.92;;;21.95;;
43088;SDS011;28709;52.030;5.652;2023-02-15T16:45:12;40.00;;;21.80;;
43088;SDS011;28709;52.030;5.652;2023-02-15T16:47:43;42.63;;;21.20;;
43088;SDS011;28709;52.030;5.652;2023-02-15T16:50:18;49.38;;;23.30;;
43088;SDS011;28709;52.030;5.652;2023-02-15T16:52:47;45.40;;;21.75;;
43088;SDS011;28709;52.030;5.652;2023-02-15T16:55:23;44.33;;;21.80;;
43088;SDS011;28709;52.030;5.652;2023-02-15T16:58:13;49.85;;;24.38;;
43088;SDS011;28709;52.030;5.652;2023-02-15T17:00:42;40.13;;;21.40;;
43088;SDS011;28709;52.030;5.652;2023-02-15T17:05:47;52.38;;;23.75;;
43088;SDS011;28709;52.030;5.652;2023-02-15T17:13:27;41.17;;;22.27;;
43088;SDS011;28709;52.030;5.652;2023-02-15T17:18:26;47.92;;;23.85;;
43088;SDS011;28709;52.030;5.652;2023-02-15T17:20:53;52.78;;;24.83;;
43088;SDS011;28709;52.030;5.652;2023-02-15T17:25:57;49.83;;;24.70;;
43088;SDS011;28709;52.030;5.652;2023-02-15T17:28:26;43.30;;;22.15;;
43088;SDS011;28709;52.030;5.652;2023-02-15T17:30:56;42.70;;;22.63;;
43088;SDS011;28709;52.030;5.652;2023-02-15T17:38:27;47.47;;;23.35;;
43088;SDS011;28709;52.030;5.652;2023-02-15T17:40:53;47.85;;;23.02;;
43088;SDS011;28709;52.030;5.652;2023-02-15T17:43:18;43.65;;;23.80;;
43088;SDS011;28709;52.030;5.652;2023-02-15T17:45:47;50.72;;;23.70;;
43088;SDS011;28709;52.030;5.652;2023-02-15T17:48:33;53.38;;;23.92;;
43088;SDS011;28709;52.030;5.652;2023-02-15T17:51:01;50.25;;;23.77;;
43088;SDS011;28709;52.030;5.652;2023-02-15T17:53:28;52.38;;;25.80;;
43088;SDS011;28709;52.030;5.652;2023-02-15T17:55:54;49.63;;;24.23;;
43088;SDS011;28709;52.030;5.652;2023-02-15T17:58:20;52.85;;;25.05;;
43088;SDS011;28709;52.030;5.652;2023-02-15T18:03:48;52.65;;;23.90;;
43088;SDS011;28709;52.030;5.652;2023-02-15T18:06:34;51.85;;;24.80;;
43088;SDS011;28709;52.030;5.652;2023-02-15T18:09:20;47.00;;;22.70;;
43088;SDS011;28709;52.030;5.652;2023-02-15T18:12:19;49.67;;;22.80;;
43088;SDS011;28709;52.030;5.652;2023-02-15T18:14:50;48.83;;;22.88;;
43088;SDS011;28709;52.030;5.652;2023-02-15T18:17:21;45.95;;;22.83;;
43088;SDS011;28709;52.030;5.652;2023-02-15T18:19:54;45.55;;;22.02;;
43088;SDS011;28709;52.030;5.652;2023-02-15T18:22:20;44.83;;;23.52;;
43088;SDS011;28709;52.030;5.652;2023-02-15T18:24:46;45.67;;;23.38;;
43088;SDS011;28709;52.030;5.652;2023-02-15T18:27:13;47.40;;;22.90;;
43088;SDS011;28709;52.030;5.652;2023-02-15T18:29:39;53.40;;;25.70;;
43088;SDS011;28709;52.030;5.652;2023-02-15T18:32:06;46.13;;;23.40;;